sensor_id;sensor_type;location;lat;lon;timestamp;P1;durP1;ratioP1;P2;durP2;ratioP2
41139;SDS011;26881;48.784;9.192;2024-01-15T00:03:58;24.70;;;12.47;;
41139;SDS011;26881;48.784;9.192;2024-01-15T00:09:21;21.37;;;11.50;;
41139;SDS011;26881;48.784;9.192;2024-01-15T00:14:42;27.80;;;13.20;;
41139;SDS011;26881;48.784;9.192;2024-01-15T00:20:04;28.70;;;13.57;;
41139;SDS011;26881;48.784;9.192;2024-01-15T00:25:27;25.03;;;12.50;;
41139;SDS011;26881;48.784;9.192;2024-01-15T00:30:49;24.20;;;12.53;;
41139;SDS011;26881;48.784;9.192;2024-01-15T00:36:11;22.73;;;11.90;;
41139;SDS011;26881;48.784;9.192;2024-01-15T00:41:33;26.07;;;12.23;;
41139;SDS011;26881;48.784;9.192;2024-01-15T00:46:55;25.50;;;10.90;;
41139;SDS011;26881;48.784;9.192;2024-01-15T00:52:16;25.57;;;11.43;;
41139;SDS011;26881;48.784;9.192;2024-01-15T01:59:32;21.37;;;10.47;;
41139;SDS011;26881;48.784;9.192;2024-01-15T02:04:56;25.33;;;10.47;;
41139;SDS011;26881;48.784;9.192;2024-01-15T02:10:18;22.37;;;11.17;;
41139;SDS011;26881;48.784;9.192;2024-01-15T02:15:40;22.30;;;10.50;;
41139;SDS011;26881;48.784;9.192;2024-01-15T02:21:02;24.87;;;11.23;;
41139;SDS011;26881;48.784;9.192;2024-01-15T02:26:24;21.03;;;10.47;;
41139;SDS011;26881;48.784;9.192;2024-01-15T02:31:46;21.93;;;10.30;;
41139;SDS011;26881;48.784;9.192;2024-01-15T02:37:08;21.07;;;9.80;;
41139;SDS011;26881;48.784;9.192;2024-01-15T02:42:30;18.57;;;10.27;;
41139;SDS011;26881;48.784;9.192;2024-01-15T02:47:52;21.50;;;10.10;;
41139;SDS011;26881;48.784;9.192;2024-01-15T02:53:14;19.63;;;9.90;;
41139;SDS011;26881;48.784;9.192;2024-01-15T02:58:35;20.30;;;10.83;;
41139;SDS011;26881;48.784;9.192;2024-01-15T03:03:57;20.47;;;9.97;;
41139;SDS011;26881;48.784;9.192;2024-01-15T03:09:19;22.40;;;10.13;;
41139;SDS011;26881;48.784;9.192;2024-01-15T03:14:42;18.23;;;9.57;;
41139;SDS011;26881;48.784;9.192;2024-01-15T03:20:04;21.50;;;10.67;;
41139;SDS011;26881;48.784;9.192;2024-01-15T03:25:26;20.90;;;10.10;;
41139;SDS011;26881;48.784;9.192;2024-01-15T03:30:48;25.23;;;10.80;;
41139;SDS011;26881;48.784;9.192;2024-01-15T03:36:10;22.40;;;10.40;;
41139;SDS011;26881;48.784;9.192;2024-01-15T03:41:32;18.60;;;9.57;;
41139;SDS011;26881;48.784;9.192;2024-01-15T03:46:54;20.33;;;10.00;;
41139;SDS011;26881;48.784;9.192;2024-01-15T03:52:16;20.47;;;10.03;;
41139;SDS011;26881;48.784;9.192;2024-01-15T03:57:38;21.57;;;9.47;;
41139;SDS011;26881;48.784;9.192;2024-01-15T04:03:00;22.97;;;10.40;;
41139;SDS011;26881;48.784;9.192;2024-01-15T04:08:22;19.53;;;9.97;;
41139;SDS011;26881;48.784;9.192;2024-01-15T04:13:43;20.93;;;10.33;;
41139;SDS011;26881;48.784;9.192;2024-01-15T04:19:05;20.10;;;9.73;;
41139;SDS011;26881;48.784;9.192;2024-01-15T04:24:28;19.97;;;9.60;;
41139;SDS011;26881;48.784;9.192;2024-01-15T04:29:49;19.17;;;9.00;;
41139;SDS011;26881;48.784;9.192;2024-01-15T04:35:11;20.07;;;8.50;;
41139;SDS011;26881;48.784;9.192;2024-01-15T04:40:34;18.67;;;8.97;;
41139;SDS011;26881;48.784;9.192;2024-01-15T04:45:57;18.07;;;8.77;;
41139;SDS011;26881;48.784;9.192;2024-01-15T04:51:19;15.43;;;8.90;;
41139;SDS011;26881;48.784;9.192;2024-01-15T04:56:41;17.37;;;8.37;;
41139;SDS011;26881;48.784;9.192;2024-01-15T05:02:02;20.03;;;9.33;;
41139;SDS011;26881;48.784;9.192;2024-01-15T05:07:24;20.67;;;9.43;;
41139;SDS011;26881;48.784;9.192;2024-01-15T05:12:46;15.90;;;8.57;;
41139;SDS011;26881;48.784;9.192;2024-01-15T05:18:08;20.87;;;9.40;;
41139;SDS011;26881;48.784;9.192;2024-01-15T05:23:31;18.00;;;8.70;;
41139;SDS011;26881;48.784;9.192;2024-01-15T05:28:53;17.20;;;8.47;;
41139;SDS011;26881;48.784;9.192;2024-01-15T05:34:14;17.47;;;8.73;;
41139;SDS011;26881;48.784;9.192;2024-01-15T05:39:36;16.50;;;8.30;;
41139;SDS011;26881;48.784;9.192;2024-01-15T05:44:58;16.33;;;7.93;;
41139;SDS011;26881;48.784;9.192;2024-01-15T05:50:21;16.43;;;7.97;;
41139;SDS011;26881;48.784;9.192;2024-01-15T05:55:43;15.90;;;9.00;;
41139;SDS011;26881;48.784;9.192;2024-01-15T06:01:05;16.73;;;8.77;;
41139;SDS011;26881;48.784;9.192;2024-01-15T06:06:27;17.57;;;8.40;;
41139;SDS011;26881;48.784;9.192;2024-01-15T06:11:49;16.30;;;8.53;;
41139;SDS011;26881;48.784;9.192;2024-01-15T06:17:11;14.60;;;8.50;;
41139;SDS011;26881;48.784;9.192;2024-01-15T06:22:33;16.53;;;8.27;;
41139;SDS011;26881;48.784;9.192;2024-01-15T06:27:55;14.97;;;8.13;;
41139;SDS011;26881;48.784;9.192;2024-01-15T06:33:17;14.47;;;8.63;;
41139;SDS011;26881;48.784;9.192;2024-01-15T06:38:39;15.50;;;8.53;;
41139;SDS011;26881;48.784;9.192;2024-01-15T06:44:00;16.13;;;8.53;;
41139;SDS011;26881;48.784;9.192;2024-01-15T06:49:22;14.80;;;8.07;;
41139;SDS011;26881;48.784;9.192;2024-01-15T06:54:45;18.70;;;9.17;;
41139;SDS011;26881;48.784;9.192;2024-01-15T07:00:07;17.47;;;8.57;;
41139;SDS011;26881;48.784;9.192;2024-01-15T07:05:29;16.70;;;7.73;;
41139;SDS011;26881;48.784;9.192;2024-01-15T07:10:52;12.90;;;7.27;;
41139;SDS011;26881;48.784;9.192;2024-01-15T07:16:14;18.80;;;8.97;;
41139;SDS011;26881;48.784;9.192;2024-01-15T07:21:50;12.13;;;7.40;;
41139;SDS011;26881;48.784;9.192;2024-01-15T07:27:16;13.37;;;7.47;;
41139;SDS011;26881;48.784;9.192;2024-01-15T07:32:38;16.03;;;8.40;;
41139;SDS011;26881;48.784;9.192;2024-01-15T07:38:02;13.93;;;7.57;;
41139;SDS011;26881;48.784;9.192;2024-01-15T07:43:24;16.13;;;8.20;;
41139;SDS011;26881;48.784;9.192;2024-01-15T07:48:46;14.73;;;8.03;;
41139;SDS011;26881;48.784;9.192;2024-01-15T07:54:08;15.83;;;8.20;;
41139;SDS011;26881;48.784;9.192;2024-01-15T07:59:30;15.93;;;8.27;;
41139;SDS011;26881;48.784;9.192;2024-01-15T08:04:52;16.20;;;7.77;;
41139;SDS011;26881;48.784;9.192;2024-01-15T08:10:14;17.37;;;7.80;;
41139;SDS011;26881;48.784;9.192;2024-01-15T08:15:36;13.23;;;7.80;;
41139;SDS011;26881;48.784;9.192;2024-01-15T08:20:58;16.40;;;8.47;;
41139;SDS011;26881;48.784;9.192;2024-01-15T08:26:20;18.13;;;8.20;;
41139;SDS011;26881;48.784;9.192;2024-01-15T08:31:43;11.33;;;7.07;;
41139;SDS011;26881;48.784;9.192;2024-01-15T08:37:05;16.43;;;8.40;;
41139;SDS011;26881;48.784;9.192;2024-01-15T08:42:26;13.90;;;7.63;;
41139;SDS011;26881;48.784;9.192;2024-01-15T08:47:48;15.13;;;7.50;;
41139;SDS011;26881;48.784;9.192;2024-01-15T08:53:10;14.67;;;7.90;;
41139;SDS011;26881;48.784;9.192;2024-01-15T08:58:32;14.57;;;7.63;;
41139;SDS011;26881;48.784;9.192;2024-01-15T09:03:54;18.57;;;7.23;;
41139;SDS011;26881;48.784;9.192;2024-01-15T09:09:16;12.63;;;6.20;;
41139;SDS011;26881;48.784;9.192;2024-01-15T09:14:39;11.30;;;6.17;;
41139;SDS011;26881;48.784;9.192;2024-01-15T09:20:01;9.87;;;5.50;;
41139;SDS011;26881;48.784;9.192;2024-01-15T09:25:25;13.30;;;5.77;;
41139;SDS011;26881;48.784;9.192;2024-01-15T09:30:47;9.73;;;5.43;;
41139;SDS011;26881;48.784;9.192;2024-01-15T09:36:09;12.97;;;4.73;;
41139;SDS011;26881;48.784;9.192;2024-01-15T09:41:31;11.03;;;5.50;;
41139;SDS011;26881;48.784;9.192;2024-01-15T09:46:53;13.67;;;5.93;;
41139;SDS011;26881;48.784;9.192;2024-01-15T09:52:17;9.77;;;5.53;;
41139;SDS011;26881;48.784;9.192;2024-01-15T09:57:40;14.60;;;5.50;;
41139;SDS011;26881;48.784;9.192;2024-01-15T10:03:03;8.87;;;4.90;;
41139;SDS011;26881;48.784;9.192;2024-01-15T10:08:26;11.70;;;4.80;;
41139;SDS011;26881;48.784;9.192;2024-01-15T10:13:48;12.47;;;5.23;;
41139;SDS011;26881;48.784;9.192;2024-01-15T10:19:18;11.20;;;5.00;;
41139;SDS011;26881;48.784;9.192;2024-01-15T10:24:40;12.07;;;4.60;;
41139;SDS011;26881;48.784;9.192;2024-01-15T10:30:02;11.27;;;4.70;;
41139;SDS011;26881;48.784;9.192;2024-01-15T10:35:34;10.03;;;4.60;;
41139;SDS011;26881;48.784;9.192;2024-01-15T10:40:56;7.60;;;4.97;;
41139;SDS011;26881;48.784;9.192;2024-01-15T10:46:18;10.27;;;5.50;;
41139;SDS011;26881;48.784;9.192;2024-01-15T10:51:41;9.73;;;4.80;;
41139;SDS011;26881;48.784;9.192;2024-01-15T10:57:04;8.60;;;4.40;;
41139;SDS011;26881;48.784;9.192;2024-01-15T11:02:26;8.70;;;4.60;;
41139;SDS011;26881;48.784;9.192;2024-01-15T11:07:49;11.43;;;4.60;;
41139;SDS011;26881;48.784;9.192;2024-01-15T11:18:37;7.00;;;4.47;;
41139;SDS011;26881;48.784;9.192;2024-01-15T11:24:03;10.97;;;5.03;;
41139;SDS011;26881;48.784;9.192;2024-01-15T11:40:22;10.13;;;5.50;;
41139;SDS011;26881;48.784;9.192;2024-01-15T11:45:59;10.20;;;5.83;;
41139;SDS011;26881;48.784;9.192;2024-01-15T11:51:24;8.70;;;5.47;;
41139;SDS011;26881;48.784;9.192;2024-01-15T11:56:46;11.10;;;5.77;;
41139;SDS011;26881;48.784;9.192;2024-01-15T12:02:08;11.57;;;5.87;;
41139;SDS011;26881;48.784;9.192;2024-01-15T12:07:33;10.10;;;5.40;;
41139;SDS011;26881;48.784;9.192;2024-01-15T12:12:59;8.97;;;5.47;;
41139;SDS011;26881;48.784;9.192;2024-01-15T12:18:34;11.87;;;5.73;;
41139;SDS011;26881;48.784;9.192;2024-01-15T12:23:56;12.60;;;6.73;;
41139;SDS011;26881;48.784;9.192;2024-01-15T12:29:18;11.60;;;5.73;;
41139;SDS011;26881;48.784;9.192;2024-01-15T12:34:40;15.90;;;6.83;;
41139;SDS011;26881;48.784;9.192;2024-01-15T12:40:02;12.83;;;6.23;;
41139;SDS011;26881;48.784;9.192;2024-01-15T12:45:26;11.67;;;7.03;;
41139;SDS011;26881;48.784;9.192;2024-01-15T12:50:51;9.57;;;6.40;;
41139;SDS011;26881;48.784;9.192;2024-01-15T12:56:13;11.07;;;7.47;;
41139;SDS011;26881;48.784;9.192;2024-01-15T13:01:35;11.77;;;7.13;;
41139;SDS011;26881;48.784;9.192;2024-01-15T13:06:57;11.77;;;6.70;;
41139;SDS011;26881;48.784;9.192;2024-01-15T13:12:20;10.23;;;6.67;;
41139;SDS011;26881;48.784;9.192;2024-01-15T13:17:42;12.93;;;6.63;;
41139;SDS011;26881;48.784;9.192;2024-01-15T13:23:05;11.53;;;6.83;;
41139;SDS011;26881;48.784;9.192;2024-01-15T13:28:27;11.53;;;5.97;;
41139;SDS011;26881;48.784;9.192;2024-01-15T13:33:49;12.07;;;6.40;;
41139;SDS011;26881;48.784;9.192;2024-01-15T13:39:11;10.27;;;6.20;;
41139;SDS011;26881;48.784;9.192;2024-01-15T13:44:33;8.43;;;4.80;;
41139;SDS011;26881;48.784;9.192;2024-01-15T13:49:55;12.20;;;4.87;;
41139;SDS011;26881;48.784;9.192;2024-01-15T13:55:17;9.57;;;4.90;;
41139;SDS011;26881;48.784;9.192;2024-01-15T14:00:39;10.37;;;4.33;;
41139;SDS011;26881;48.784;9.192;2024-01-15T14:06:05;12.00;;;4.27;;
41139;SDS011;26881;48.784;9.192;2024-01-15T14:11:30;13.50;;;4.90;;
41139;SDS011;26881;48.784;9.192;2024-01-15T14:16:52;9.67;;;5.23;;
41139;SDS011;26881;48.784;9.192;2024-01-15T14:22:14;9.57;;;5.67;;
41139;SDS011;26881;48.784;9.192;2024-01-15T14:27:36;6.53;;;3.90;;
41139;SDS011;26881;48.784;9.192;2024-01-15T14:32:59;5.97;;;4.37;;
41139;SDS011;26881;48.784;9.192;2024-01-15T14:38:21;5.93;;;3.93;;
41139;SDS011;26881;48.784;9.192;2024-01-15T14:43:44;4.47;;;3.53;;
41139;SDS011;26881;48.784;9.192;2024-01-15T14:49:06;5.77;;;4.70;;
41139;SDS011;26881;48.784;9.192;2024-01-15T14:54:28;7.63;;;5.23;;
41139;SDS011;26881;48.784;9.192;2024-01-15T14:59:50;6.90;;;5.23;;
41139;SDS011;26881;48.784;9.192;2024-01-15T15:05:12;7.63;;;5.80;;
41139;SDS011;26881;48.784;9.192;2024-01-15T15:10:35;8.57;;;6.40;;
41139;SDS011;26881;48.784;9.192;2024-01-15T15:15:57;8.73;;;6.80;;
41139;SDS011;26881;48.784;9.192;2024-01-15T15:21:19;10.67;;;7.27;;
41139;SDS011;26881;48.784;9.192;2024-01-15T15:26:41;9.40;;;6.93;;
41139;SDS011;26881;48.784;9.192;2024-01-15T15:32:03;11.00;;;6.70;;
41139;SDS011;26881;48.784;9.192;2024-01-15T15:37:25;9.20;;;6.47;;
41139;SDS011;26881;48.784;9.192;2024-01-15T15:42:47;9.40;;;6.10;;
41139;SDS011;26881;48.784;9.192;2024-01-15T15:48:09;10.13;;;6.77;;
41139;SDS011;26881;48.784;9.192;2024-01-15T15:53:31;10.67;;;5.80;;
41139;SDS011;26881;48.784;9.192;2024-01-15T15:58:53;8.93;;;6.10;;
41139;SDS011;26881;48.784;9.192;2024-01-15T16:04:15;7.97;;;5.50;;
41139;SDS011;26881;48.784;9.192;2024-01-15T16:09:37;11.43;;;6.20;;
41139;SDS011;26881;48.784;9.192;2024-01-15T16:15:00;9.23;;;6.10;;
41139;SDS011;26881;48.784;9.192;2024-01-15T16:20:22;7.70;;;5.87;;
41139;SDS011;26881;48.784;9.192;2024-01-15T16:26:04;10.13;;;5.50;;
41139;SDS011;26881;48.784;9.192;2024-01-15T16:31:28;12.63;;;6.73;;
41139;SDS011;26881;48.784;9.192;2024-01-15T16:36:50;10.93;;;6.50;;
41139;SDS011;26881;48.784;9.192;2024-01-15T16:42:12;15.43;;;7.33;;
41139;SDS011;26881;48.784;9.192;2024-01-15T16:47:34;8.63;;;6.03;;
41139;SDS011;26881;48.784;9.192;2024-01-15T16:52:56;8.80;;;5.90;;
41139;SDS011;26881;48.784;9.192;2024-01-15T16:58:18;10.80;;;5.40;;
41139;SDS011;26881;48.784;9.192;2024-01-15T17:03:40;9.37;;;5.67;;
41139;SDS011;26881;48.784;9.192;2024-01-15T17:09:02;11.27;;;5.73;;
41139;SDS011;26881;48.784;9.192;2024-01-15T17:14:24;8.53;;;5.30;;
41139;SDS011;26881;48.784;9.192;2024-01-15T17:19:46;7.93;;;5.70;;
41139;SDS011;26881;48.784;9.192;2024-01-15T17:25:08;10.23;;;5.97;;
41139;SDS011;26881;48.784;9.192;2024-01-15T17:30:30;10.73;;;5.80;;
41139;SDS011;26881;48.784;9.192;2024-01-15T17:35:53;8.90;;;6.23;;
41139;SDS011;26881;48.784;9.192;2024-01-15T17:41:16;9.70;;;6.40;;
41139;SDS011;26881;48.784;9.192;2024-01-15T17:46:38;10.97;;;5.67;;
41139;SDS011;26881;48.784;9.192;2024-01-15T17:52:00;11.07;;;6.60;;
41139;SDS011;26881;48.784;9.192;2024-01-15T17:57:23;9.30;;;6.00;;
41139;SDS011;26881;48.784;9.192;2024-01-15T18:02:47;7.77;;;5.60;;
41139;SDS011;26881;48.784;9.192;2024-01-15T18:08:13;9.40;;;5.57;;
41139;SDS011;26881;48.784;9.192;2024-01-15T18:13:35;8.43;;;5.20;;
41139;SDS011;26881;48.784;9.192;2024-01-15T18:18:59;10.33;;;6.63;;
41139;SDS011;26881;48.784;9.192;2024-01-15T18:24:21;11.17;;;5.77;;
41139;SDS011;26881;48.784;9.192;2024-01-15T18:29:43;10.27;;;6.07;;
41139;SDS011;26881;48.784;9.192;2024-01-15T18:35:05;10.17;;;6.17;;
41139;SDS011;26881;48.784;9.192;2024-01-15T18:40:27;8.67;;;5.67;;
41139;SDS011;26881;48.784;9.192;2024-01-15T18:45:56;10.30;;;5.90;;
41139;SDS011;26881;48.784;9.192;2024-01-15T18:51:21;11.67;;;6.33;;
41139;SDS011;26881;48.784;9.192;2024-01-15T18:56:46;9.40;;;4.93;;
41139;SDS011;26881;48.784;9.192;2024-01-15T19:02:08;10.17;;;5.00;;
41139;SDS011;26881;48.784;9.192;2024-01-15T19:07:30;15.67;;;5.20;;
41139;SDS011;26881;48.784;9.192;2024-01-15T19:12:54;6.57;;;4.27;;
41139;SDS011;26881;48.784;9.192;2024-01-15T19:18:16;6.87;;;4.60;;
41139;SDS011;26881;48.784;9.192;2024-01-15T19:23:38;8.17;;;4.63;;
41139;SDS011;26881;48.784;9.192;2024-01-15T19:29:00;9.30;;;5.07;;
41139;SDS011;26881;48.784;9.192;2024-01-15T19:34:22;15.63;;;6.53;;
41139;SDS011;26881;48.784;9.192;2024-01-15T19:39:44;7.50;;;4.97;;
41139;SDS011;26881;48.784;9.192;2024-01-15T19:45:06;10.47;;;4.80;;
41139;SDS011;26881;48.784;9.192;2024-01-15T19:50:28;9.93;;;5.40;;
41139;SDS011;26881;48.784;9.192;2024-01-15T19:55:50;6.40;;;4.63;;
41139;SDS011;26881;48.784;9.192;2024-01-15T20:01:12;9.60;;;4.90;;
41139;SDS011;26881;48.784;9.192;2024-01-15T20:06:34;6.70;;;4.33;;
41139;SDS011;26881;48.784;9.192;2024-01-15T20:11:56;5.83;;;3.70;;
41139;SDS011;26881;48.784;9.192;2024-01-15T20:17:18;7.40;;;4.07;;
41139;SDS011;26881;48.784;9.192;2024-01-15T20:22:40;10.60;;;4.57;;
41139;SDS011;26881;48.784;9.192;2024-01-15T20:28:02;7.13;;;3.80;;
41139;SDS011;26881;48.784;9.192;2024-01-15T20:33:24;6.73;;;4.03;;
41139;SDS011;26881;48.784;9.192;2024-01-15T20:38:46;9.17;;;4.60;;
41139;SDS011;26881;48.784;9.192;2024-01-15T20:44:08;7.13;;;4.30;;
41139;SDS011;26881;48.784;9.192;2024-01-15T20:49:30;8.23;;;4.00;;
41139;SDS011;26881;48.784;9.192;2024-01-15T20:54:52;7.43;;;4.63;;
41139;SDS011;26881;48.784;9.192;2024-01-15T21:00:14;7.83;;;3.77;;
41139;SDS011;26881;48.784;9.192;2024-01-15T21:05:37;5.73;;;3.63;;
41139;SDS011;26881;48.784;9.192;2024-01-15T21:10:59;7.63;;;3.90;;
41139;SDS011;26881;48.784;9.192;2024-01-15T21:16:21;6.60;;;3.77;;
41139;SDS011;26881;48.784;9.192;2024-01-15T21:21:46;6.83;;;3.63;;
41139;SDS011;26881;48.784;9.192;2024-01-15T21:27:09;8.27;;;4.30;;
41139;SDS011;26881;48.784;9.192;2024-01-15T21:32:31;7.13;;;3.93;;
41139;SDS011;26881;48.784;9.192;2024-01-15T21:37:53;9.30;;;4.97;;
41139;SDS011;26881;48.784;9.192;2024-01-15T21:43:15;14.80;;;6.90;;
41139;SDS011;26881;48.784;9.192;2024-01-15T21:48:36;11.53;;;6.37;;
41139;SDS011;26881;48.784;9.192;2024-01-15T21:54:02;6.23;;;4.30;;
41139;SDS011;26881;48.784;9.192;2024-01-15T21:59:25;7.33;;;4.27;;
41139;SDS011;26881;48.784;9.192;2024-01-15T22:04:47;6.80;;;3.90;;
41139;SDS011;26881;48.784;9.192;2024-01-15T22:10:09;4.90;;;3.53;;
41139;SDS011;26881;48.784;9.192;2024-01-15T22:15:32;8.13;;;3.87;;
41139;SDS011;26881;48.784;9.192;2024-01-15T22:20:54;11.80;;;4.20;;
41139;SDS011;26881;48.784;9.192;2024-01-15T22:26:17;11.93;;;4.30;;
41139;SDS011;26881;48.784;9.192;2024-01-15T22:31:39;6.70;;;4.10;;
41139;SDS011;26881;48.784;9.192;2024-01-15T22:37:02;12.07;;;3.77;;
41139;SDS011;26881;48.784;9.192;2024-01-15T22:42:26;7.10;;;4.00;;
41139;SDS011;26881;48.784;9.192;2024-01-15T22:47:48;6.73;;;3.87;;
41139;SDS011;26881;48.784;9.192;2024-01-15T22:53:10;6.43;;;3.50;;
41139;SDS011;26881;48.784;9.192;2024-01-15T22:58:32;8.33;;;3.77;;
41139;SDS011;26881;48.784;9.192;2024-01-15T23:03:54;7.27;;;3.70;;
41139;SDS011;26881;48.784;9.192;2024-01-15T23:09:16;7.90;;;3.87;;
41139;SDS011;26881;48.784;9.192;2024-01-15T23:14:39;6.90;;;4.10;;
41139;SDS011;26881;48.784;9.192;2024-01-15T23:20:01;8.10;;;4.13;;
41139;SDS011;26881;48.784;9.192;2024-01-15T23:25:23;5.37;;;3.90;;
41139;SDS011;26881;48.784;9.192;2024-01-15T23:30:45;8.33;;;3.70;;
41139;SDS011;26881;48.784;9.192;2024-01-15T23:36:07;5.50;;;3.70;;
41139;SDS011;26881;48.784;9.192;2024-01-15T23:41:30;5.37;;;3.50;;
41139;SDS011;26881;48.784;9.192;2024-01-15T23:46:53;5.77;;;3.93;;
41139;SDS011;26881;48.784;9.192;2024-01-15T23:52:14;6.70;;;4.10;;
41139;SDS011;26881;48.784;9.192;2024-01-15T23:57:36;6.63;;;3.97;;
